sensor_id;sensor_type;location;lat;lon;timestamp;P1;P2;P0
70520;PMS5003;58442;52.716;23.560;2022-12-18T00:00:59;14;14;5
70520;PMS5003;58442;52.716;23.560;2022-12-18T00:03:06;12;11;4
70520;PMS5003;58442;52.716;23.560;2022-12-18T00:05:09;14;7;4
70520;PMS5003;58442;52.716;23.560;2022-12-18T00:07:10;10;8;5
70520;PMS5003;58442;52.716;23.560;2022-12-18T00:09:12;16;14;7
70520;PMS5003;58442;52.716;23.560;2022-12-18T00:11:14;13;7;3
70520;PMS5003;58442;52.716;23.560;2022-12-18T00:13:25;7;7;4
70520;PMS5003;58442;52.716;23.560;2022-12-18T00:15:27;17;16;5
70520;PMS5003;58442;52.716;23.560;2022-12-18T00:17:28;8;8;5
70520;PMS5003;58442;52.716;23.560;2022-12-18T00:19:29;24;15;5
70520;PMS5003;58442;52.716;23.560;2022-12-18T00:21:40;7;5;1
70520;PMS5003;58442;52.716;23.560;2022-12-18T00:23:43;13;11;6
70520;PMS5003;58442;52.716;23.560;2022-12-18T00:25:45;9;9;2
70520;PMS5003;58442;52.716;23.560;2022-12-18T00:27:46;14;14;7
70520;PMS5003;58442;52.716;23.560;2022-12-18T00:29:55;8;8;4
70520;PMS5003;58442;52.716;23.560;2022-12-18T00:31:56;4;4;2
70520;PMS5003;58442;52.716;23.560;2022-12-18T00:33:58;14;11;4
70520;PMS5003;58442;52.716;23.560;2022-12-18T00:36:03;6;6;4
70520;PMS5003;58442;52.716;23.560;2022-12-18T00:38:10;16;15;5
70520;PMS5003;58442;52.716;23.560;2022-12-18T00:40:12;13;12;5
70520;PMS5003;58442;52.716;23.560;2022-12-18T00:42:13;12;10;6
70520;PMS5003;58442;52.716;23.560;2022-12-18T00:44:26;5;4;0
70520;PMS5003;58442;52.716;23.560;2022-12-18T00:46:27;6;6;2
70520;PMS5003;58442;52.716;23.560;2022-12-18T00:48:28;16;5;2
70520;PMS5003;58442;52.716;23.560;2022-12-18T00:50:30;12;11;4
70520;PMS5003;58442;52.716;23.560;2022-12-18T00:52:31;13;11;4
70520;PMS5003;58442;52.716;23.560;2022-12-18T00:54:41;9;8;3
70520;PMS5003;58442;52.716;23.560;2022-12-18T00:56:42;12;7;4
70520;PMS5003;58442;52.716;23.560;2022-12-18T00:58:43;9;8;5
70520;PMS5003;58442;52.716;23.560;2022-12-18T01:00:44;13;8;3
70520;PMS5003;58442;52.716;23.560;2022-12-18T01:02:56;14;11;5
70520;PMS5003;58442;52.716;23.560;2022-12-18T01:04:57;5;5;4
70520;PMS5003;58442;52.716;23.560;2022-12-18T01:06:58;9;8;3
70520;PMS5003;58442;52.716;23.560;2022-12-18T01:08:59;10;10;7
70520;PMS5003;58442;52.716;23.560;2022-12-18T01:11:06;11;9;1
70520;PMS5003;58442;52.716;23.560;2022-12-18T01:13:12;12;10;3
70520;PMS5003;58442;52.716;23.560;2022-12-18T01:15:13;6;6;2
70520;PMS5003;58442;52.716;23.560;2022-12-18T01:17:16;9;9;5
70520;PMS5003;58442;52.716;23.560;2022-12-18T01:19:17;7;7;5
70520;PMS5003;58442;52.716;23.560;2022-12-18T01:21:18;10;9;5
70520;PMS5003;58442;52.716;23.560;2022-12-18T01:23:19;8;7;4
70520;PMS5003;58442;52.716;23.560;2022-12-18T01:25:21;6;6;3
70520;PMS5003;58442;52.716;23.560;2022-12-18T01:27:22;6;6;3
70520;PMS5003;58442;52.716;23.560;2022-12-18T01:29:23;10;10;6
70520;PMS5003;58442;52.716;23.560;2022-12-18T01:31:27;7;7;2
70520;PMS5003;58442;52.716;23.560;2022-12-18T01:33:30;8;7;5
70520;PMS5003;58442;52.716;23.560;2022-12-18T01:35:31;6;6;3
70520;PMS5003;58442;52.716;23.560;2022-12-18T01:37:32;12;10;4
70520;PMS5003;58442;52.716;23.560;2022-12-18T01:39:41;11;10;5
70520;PMS5003;58442;52.716;23.560;2022-12-18T01:41:43;8;8;3
70520;PMS5003;58442;52.716;23.560;2022-12-18T01:43:57;5;5;3
70520;PMS5003;58442;52.716;23.560;2022-12-18T01:45:59;8;8;5
70520;PMS5003;58442;52.716;23.560;2022-12-18T01:48:05;12;11;6
70520;PMS5003;58442;52.716;23.560;2022-12-18T01:50:11;14;10;5
70520;PMS5003;58442;52.716;23.560;2022-12-18T01:52:18;6;6;3
70520;PMS5003;58442;52.716;23.560;2022-12-18T01:54:20;10;8;5
70520;PMS5003;58442;52.716;23.560;2022-12-18T01:56:22;14;8;3
70520;PMS5003;58442;52.716;23.560;2022-12-18T02:00:39;7;7;2
70520;PMS5003;58442;52.716;23.560;2022-12-18T02:02:41;7;6;4
70520;PMS5003;58442;52.716;23.560;2022-12-18T02:04:43;9;9;2
70520;PMS5003;58442;52.716;23.560;2022-12-18T02:06:44;8;8;6
70520;PMS5003;58442;52.716;23.560;2022-12-18T02:11:05;9;8;4
70520;PMS5003;58442;52.716;23.560;2022-12-18T02:13:17;8;8;4
70520;PMS5003;58442;52.716;23.560;2022-12-18T02:15:34;6;6;4
70520;PMS5003;58442;52.716;23.560;2022-12-18T02:27:08;8;7;4
70520;PMS5003;58442;52.716;23.560;2022-12-18T02:29:20;6;6;2
70520;PMS5003;58442;52.716;23.560;2022-12-18T02:31:23;8;8;4
70520;PMS5003;58442;52.716;23.560;2022-12-18T02:33:28;8;8;4
70520;PMS5003;58442;52.716;23.560;2022-12-18T02:35:31;7;7;3
70520;PMS5003;58442;52.716;23.560;2022-12-18T02:37:34;5;4;2
70520;PMS5003;58442;52.716;23.560;2022-12-18T02:39:39;16;12;4
70520;PMS5003;58442;52.716;23.560;2022-12-18T02:41:43;6;5;2
70520;PMS5003;58442;52.716;23.560;2022-12-18T02:48:29;5;3;1
70520;PMS5003;58442;52.716;23.560;2022-12-18T02:50:37;8;8;5
70520;PMS5003;58442;52.716;23.560;2022-12-18T02:55:50;10;10;5
70520;PMS5003;58442;52.716;23.560;2022-12-18T02:57:37;7;7;3
70520;PMS5003;58442;52.716;23.560;2022-12-18T02:59:56;7;7;4
70520;PMS5003;58442;52.716;23.560;2022-12-18T03:01:51;10;10;5
70520;PMS5003;58442;52.716;23.560;2022-12-18T03:04:06;6;6;4
70520;PMS5003;58442;52.716;23.560;2022-12-18T03:06:42;8;8;4
70520;PMS5003;58442;52.716;23.560;2022-12-18T03:08:46;3;3;2
70520;PMS5003;58442;52.716;23.560;2022-12-18T03:13:04;4;4;2
70520;PMS5003;58442;52.716;23.560;2022-12-18T03:17:20;5;5;3
70520;PMS5003;58442;52.716;23.560;2022-12-18T03:19:29;9;9;4
70520;PMS5003;58442;52.716;23.560;2022-12-18T03:21:43;7;6;3
70520;PMS5003;58442;52.716;23.560;2022-12-18T03:23:50;7;7;3
70520;PMS5003;58442;52.716;23.560;2022-12-18T03:25:56;6;6;4
70520;PMS5003;58442;52.716;23.560;2022-12-18T03:28:01;8;8;4
70520;PMS5003;58442;52.716;23.560;2022-12-18T03:30:17;14;14;5
70520;PMS5003;58442;52.716;23.560;2022-12-18T03:32:20;5;5;3
70520;PMS5003;58442;52.716;23.560;2022-12-18T03:34:30;2;2;1
70520;PMS5003;58442;52.716;23.560;2022-12-18T03:36:35;6;6;3
70520;PMS5003;58442;52.716;23.560;2022-12-18T03:38:36;6;5;2
70520;PMS5003;58442;52.716;23.560;2022-12-18T03:42:53;8;8;5
70520;PMS5003;58442;52.716;23.560;2022-12-18T03:45:02;3;3;2
70520;PMS5003;58442;52.716;23.560;2022-12-18T03:47:30;6;6;3
70520;PMS5003;58442;52.716;23.560;2022-12-18T03:51:42;6;6;2
70520;PMS5003;58442;52.716;23.560;2022-12-18T03:54:02;2;2;0
70520;PMS5003;58442;52.716;23.560;2022-12-18T03:56:07;12;7;2
70520;PMS5003;58442;52.716;23.560;2022-12-18T03:58:11;6;6;3
70520;PMS5003;58442;52.716;23.560;2022-12-18T04:00:18;7;7;4
70520;PMS5003;58442;52.716;23.560;2022-12-18T04:02:21;5;4;3
70520;PMS5003;58442;52.716;23.560;2022-12-18T04:04:25;9;8;4
70520;PMS5003;58442;52.716;23.560;2022-12-18T04:06:29;4;4;2
70520;PMS5003;58442;52.716;23.560;2022-12-18T04:08:35;7;6;3
70520;PMS5003;58442;52.716;23.560;2022-12-18T04:10:37;11;10;6
70520;PMS5003;58442;52.716;23.560;2022-12-18T04:12:38;8;8;3
70520;PMS5003;58442;52.716;23.560;2022-12-18T04:14:39;8;8;4
70520;PMS5003;58442;52.716;23.560;2022-12-18T04:16:40;7;4;3
70520;PMS5003;58442;52.716;23.560;2022-12-18T04:18:49;7;7;4
70520;PMS5003;58442;52.716;23.560;2022-12-18T04:20:50;7;7;4
70520;PMS5003;58442;52.716;23.560;2022-12-18T04:22:51;6;6;3
70520;PMS5003;58442;52.716;23.560;2022-12-18T04:24:52;7;4;2
70520;PMS5003;58442;52.716;23.560;2022-12-18T04:26:53;9;9;4
70520;PMS5003;58442;52.716;23.560;2022-12-18T04:28:54;4;4;2
70520;PMS5003;58442;52.716;23.560;2022-12-18T04:30:56;5;5;3
70520;PMS5003;58442;52.716;23.560;2022-12-18T04:32:59;10;9;4
70520;PMS5003;58442;52.716;23.560;2022-12-18T04:35:00;4;4;2
70520;PMS5003;58442;52.716;23.560;2022-12-18T04:37:06;5;5;3
70520;PMS5003;58442;52.716;23.560;2022-12-18T04:39:08;4;4;1
70520;PMS5003;58442;52.716;23.560;2022-12-18T04:41:14;10;9;4
70520;PMS5003;58442;52.716;23.560;2022-12-18T04:43:15;10;10;6
70520;PMS5003;58442;52.716;23.560;2022-12-18T04:45:17;8;7;3
70520;PMS5003;58442;52.716;23.560;2022-12-18T04:47:18;5;5;3
70520;PMS5003;58442;52.716;23.560;2022-12-18T04:49:19;5;4;4
70520;PMS5003;58442;52.716;23.560;2022-12-18T04:51:20;8;8;4
70520;PMS5003;58442;52.716;23.560;2022-12-18T04:53:21;5;4;1
70520;PMS5003;58442;52.716;23.560;2022-12-18T04:55:24;10;9;6
70520;PMS5003;58442;52.716;23.560;2022-12-18T04:57:26;13;9;5
70520;PMS5003;58442;52.716;23.560;2022-12-18T04:59:27;1;1;0
70520;PMS5003;58442;52.716;23.560;2022-12-18T05:01:28;9;8;3
70520;PMS5003;58442;52.716;23.560;2022-12-18T05:03:40;7;7;4
70520;PMS5003;58442;52.716;23.560;2022-12-18T05:05:41;8;6;4
70520;PMS5003;58442;52.716;23.560;2022-12-18T05:07:42;9;8;3
70520;PMS5003;58442;52.716;23.560;2022-12-18T05:09:43;8;8;4
70520;PMS5003;58442;52.716;23.560;2022-12-18T05:11:55;4;4;2
70520;PMS5003;58442;52.716;23.560;2022-12-18T05:13:56;2;1;1
70520;PMS5003;58442;52.716;23.560;2022-12-18T05:15:57;8;8;4
70520;PMS5003;58442;52.716;23.560;2022-12-18T05:17:58;8;7;2
70520;PMS5003;58442;52.716;23.560;2022-12-18T05:20:10;7;7;4
70520;PMS5003;58442;52.716;23.560;2022-12-18T05:22:11;10;10;4
70520;PMS5003;58442;52.716;23.560;2022-12-18T05:24:12;7;6;2
70520;PMS5003;58442;52.716;23.560;2022-12-18T05:26:15;5;5;2
70520;PMS5003;58442;52.716;23.560;2022-12-18T05:28:26;9;8;5
70520;PMS5003;58442;52.716;23.560;2022-12-18T05:30:29;6;5;1
70520;PMS5003;58442;52.716;23.560;2022-12-18T05:32:30;5;5;3
70520;PMS5003;58442;52.716;23.560;2022-12-18T05:34:31;4;4;3
70520;PMS5003;58442;52.716;23.560;2022-12-18T05:36:41;8;7;3
70520;PMS5003;58442;52.716;23.560;2022-12-18T05:38:42;8;6;3
70520;PMS5003;58442;52.716;23.560;2022-12-18T05:40:43;3;2;0
70520;PMS5003;58442;52.716;23.560;2022-12-18T05:42:44;7;6;2
70520;PMS5003;58442;52.716;23.560;2022-12-18T05:44:56;5;5;3
70520;PMS5003;58442;52.716;23.560;2022-12-18T05:46:57;7;6;3
70520;PMS5003;58442;52.716;23.560;2022-12-18T05:49:01;5;5;3
70520;PMS5003;58442;52.716;23.560;2022-12-18T05:51:03;7;7;3
70520;PMS5003;58442;52.716;23.560;2022-12-18T05:53:12;5;5;2
70520;PMS5003;58442;52.716;23.560;2022-12-18T05:55:15;3;1;0
70520;PMS5003;58442;52.716;23.560;2022-12-18T05:57:16;4;4;2
70520;PMS5003;58442;52.716;23.560;2022-12-18T05:59:17;6;6;3
70520;PMS5003;58442;52.716;23.560;2022-12-18T06:01:26;5;5;3
70520;PMS5003;58442;52.716;23.560;2022-12-18T06:03:28;5;5;1
70520;PMS5003;58442;52.716;23.560;2022-12-18T06:05:29;5;4;2
70520;PMS5003;58442;52.716;23.560;2022-12-18T06:07:36;8;5;2
70520;PMS5003;58442;52.716;23.560;2022-12-18T06:09:42;7;7;2
70520;PMS5003;58442;52.716;23.560;2022-12-18T06:11:43;5;5;4
70520;PMS5003;58442;52.716;23.560;2022-12-18T06:13:44;6;2;1
70520;PMS5003;58442;52.716;23.560;2022-12-18T06:15:45;8;7;3
70520;PMS5003;58442;52.716;23.560;2022-12-18T06:17:57;8;8;2
70520;PMS5003;58442;52.716;23.560;2022-12-18T06:19:58;7;6;3
70520;PMS5003;58442;52.716;23.560;2022-12-18T06:22:01;4;4;3
70520;PMS5003;58442;52.716;23.560;2022-12-18T06:24:02;7;7;5
70520;PMS5003;58442;52.716;23.560;2022-12-18T06:26:12;5;5;3
70520;PMS5003;58442;52.716;23.560;2022-12-18T06:28:14;7;4;3
70520;PMS5003;58442;52.716;23.560;2022-12-18T06:30:15;9;5;2
70520;PMS5003;58442;52.716;23.560;2022-12-18T06:32:16;7;5;2
70520;PMS5003;58442;52.716;23.560;2022-12-18T06:34:30;10;9;3
70520;PMS5003;58442;52.716;23.560;2022-12-18T06:36:31;5;5;3
70520;PMS5003;58442;52.716;23.560;2022-12-18T06:38:33;7;7;4
70520;PMS5003;58442;52.716;23.560;2022-12-18T06:40:36;6;6;5
70520;PMS5003;58442;52.716;23.560;2022-12-18T06:42:43;5;4;3
70520;PMS5003;58442;52.716;23.560;2022-12-18T06:44:44;5;4;2
70520;PMS5003;58442;52.716;23.560;2022-12-18T06:46:45;7;7;3
70520;PMS5003;58442;52.716;23.560;2022-12-18T06:48:46;7;6;3
70520;PMS5003;58442;52.716;23.560;2022-12-18T06:50:58;7;7;4
70520;PMS5003;58442;52.716;23.560;2022-12-18T06:52:59;7;7;4
70520;PMS5003;58442;52.716;23.560;2022-12-18T06:55:00;5;5;4
70520;PMS5003;58442;52.716;23.560;2022-12-18T06:57:01;8;8;4
70520;PMS5003;58442;52.716;23.560;2022-12-18T06:59:02;8;7;4
70520;PMS5003;58442;52.716;23.560;2022-12-18T07:01:04;3;3;2
70520;PMS5003;58442;52.716;23.560;2022-12-18T07:03:07;9;7;2
70520;PMS5003;58442;52.716;23.560;2022-12-18T07:05:08;7;6;4
70520;PMS5003;58442;52.716;23.560;2022-12-18T07:07:09;5;4;2
70520;PMS5003;58442;52.716;23.560;2022-12-18T07:09:10;9;8;3
70520;PMS5003;58442;52.716;23.560;2022-12-18T07:11:11;6;6;3
70520;PMS5003;58442;52.716;23.560;2022-12-18T07:13:23;8;8;4
70520;PMS5003;58442;52.716;23.560;2022-12-18T07:15:24;7;7;3
70520;PMS5003;58442;52.716;23.560;2022-12-18T07:17:25;8;8;3
70520;PMS5003;58442;52.716;23.560;2022-12-18T07:19:26;6;6;3
70520;PMS5003;58442;52.716;23.560;2022-12-18T07:21:27;8;8;4
70520;PMS5003;58442;52.716;23.560;2022-12-18T07:23:29;3;3;1
70520;PMS5003;58442;52.716;23.560;2022-12-18T07:25:30;1;1;1
70520;PMS5003;58442;52.716;23.560;2022-12-18T07:27:34;8;6;2
70520;PMS5003;58442;52.716;23.560;2022-12-18T07:29:35;2;2;0
70520;PMS5003;58442;52.716;23.560;2022-12-18T07:31:36;3;3;1
70520;PMS5003;58442;52.716;23.560;2022-12-18T07:33:37;7;7;3
70520;PMS5003;58442;52.716;23.560;2022-12-18T07:35:48;6;6;3
70520;PMS5003;58442;52.716;23.560;2022-12-18T07:37:49;5;3;2
70520;PMS5003;58442;52.716;23.560;2022-12-18T07:39:50;7;6;2
70520;PMS5003;58442;52.716;23.560;2022-12-18T07:41:51;4;4;2
70520;PMS5003;58442;52.716;23.560;2022-12-18T07:44:04;8;7;4
70520;PMS5003;58442;52.716;23.560;2022-12-18T07:46:05;6;6;4
70520;PMS5003;58442;52.716;23.560;2022-12-18T07:48:07;3;3;2
70520;PMS5003;58442;52.716;23.560;2022-12-18T07:50:09;5;5;4
70520;PMS5003;58442;52.716;23.560;2022-12-18T07:52:19;8;6;3
70520;PMS5003;58442;52.716;23.560;2022-12-18T07:54:20;7;7;3
70520;PMS5003;58442;52.716;23.560;2022-12-18T07:56:21;6;4;2
70520;PMS5003;58442;52.716;23.560;2022-12-18T07:58:22;7;7;3
70520;PMS5003;58442;52.716;23.560;2022-12-18T08:00:23;6;6;3
70520;PMS5003;58442;52.716;23.560;2022-12-18T08:02:24;6;5;3
70520;PMS5003;58442;52.716;23.560;2022-12-18T08:04:25;7;5;2
70520;PMS5003;58442;52.716;23.560;2022-12-18T08:06:29;8;8;4
70520;PMS5003;58442;52.716;23.560;2022-12-18T08:08:30;3;2;0
70520;PMS5003;58442;52.716;23.560;2022-12-18T08:10:31;9;9;4
70520;PMS5003;58442;52.716;23.560;2022-12-18T08:12:32;6;6;3
70520;PMS5003;58442;52.716;23.560;2022-12-18T08:14:44;7;6;3
70520;PMS5003;58442;52.716;23.560;2022-12-18T08:16:45;4;4;2
70520;PMS5003;58442;52.716;23.560;2022-12-18T08:18:46;5;5;1
70520;PMS5003;58442;52.716;23.560;2022-12-18T08:20:48;7;7;5
70520;PMS5003;58442;52.716;23.560;2022-12-18T08:22:59;5;5;3
70520;PMS5003;58442;52.716;23.560;2022-12-18T08:25:00;6;6;4
70520;PMS5003;58442;52.716;23.560;2022-12-18T08:27:02;8;6;2
70520;PMS5003;58442;52.716;23.560;2022-12-18T08:29:03;8;7;3
70520;PMS5003;58442;52.716;23.560;2022-12-18T08:31:14;6;6;4
70520;PMS5003;58442;52.716;23.560;2022-12-18T08:33:15;7;7;5
70520;PMS5003;58442;52.716;23.560;2022-12-18T08:35:17;8;7;3
70520;PMS5003;58442;52.716;23.560;2022-12-18T08:37:18;5;5;2
70520;PMS5003;58442;52.716;23.560;2022-12-18T08:39:29;11;8;4
70520;PMS5003;58442;52.716;23.560;2022-12-18T08:41:31;8;8;4
70520;PMS5003;58442;52.716;23.560;2022-12-18T08:43:32;8;8;4
70520;PMS5003;58442;52.716;23.560;2022-12-18T08:45:45;8;8;3
70520;PMS5003;58442;52.716;23.560;2022-12-18T08:47:46;9;9;5
70520;PMS5003;58442;52.716;23.560;2022-12-18T08:49:47;9;7;4
70520;PMS5003;58442;52.716;23.560;2022-12-18T08:51:48;5;5;2
70520;PMS5003;58442;52.716;23.560;2022-12-18T08:53:57;7;7;2
70520;PMS5003;58442;52.716;23.560;2022-12-18T08:56:00;8;7;4
70520;PMS5003;58442;52.716;23.560;2022-12-18T08:58:01;6;6;3
70520;PMS5003;58442;52.716;23.560;2022-12-18T09:00:03;8;7;4
70520;PMS5003;58442;52.716;23.560;2022-12-18T09:02:05;3;3;1
70520;PMS5003;58442;52.716;23.560;2022-12-18T09:04:15;10;10;4
70520;PMS5003;58442;52.716;23.560;2022-12-18T09:06:18;5;5;4
70520;PMS5003;58442;52.716;23.560;2022-12-18T09:08:20;4;4;3
70520;PMS5003;58442;52.716;23.560;2022-12-18T09:10:21;17;7;2
70520;PMS5003;58442;52.716;23.560;2022-12-18T09:12:30;5;5;3
70520;PMS5003;58442;52.716;23.560;2022-12-18T09:14:32;13;5;3
70520;PMS5003;58442;52.716;23.560;2022-12-18T09:16:33;9;9;3
70520;PMS5003;58442;52.716;23.560;2022-12-18T09:18:35;6;6;2
70520;PMS5003;58442;52.716;23.560;2022-12-18T09:20:45;8;7;4
70520;PMS5003;58442;52.716;23.560;2022-12-18T09:22:47;11;10;5
70520;PMS5003;58442;52.716;23.560;2022-12-18T09:24:48;11;11;5
70520;PMS5003;58442;52.716;23.560;2022-12-18T09:26:52;7;7;4
70520;PMS5003;58442;52.716;23.560;2022-12-18T09:29:01;5;5;1
70520;PMS5003;58442;52.716;23.560;2022-12-18T09:31:32;6;6;5
70520;PMS5003;58442;52.716;23.560;2022-12-18T09:33:36;12;11;5
70520;PMS5003;58442;52.716;23.560;2022-12-18T09:35:42;8;8;5
70520;PMS5003;58442;52.716;23.560;2022-12-18T09:37:47;11;11;6
70520;PMS5003;58442;52.716;23.560;2022-12-18T09:39:48;11;11;1
70520;PMS5003;58442;52.716;23.560;2022-12-18T09:41:53;10;8;4
70520;PMS5003;58442;52.716;23.560;2022-12-18T09:43:58;12;11;6
70520;PMS5003;58442;52.716;23.560;2022-12-18T09:46:05;13;13;7
70520;PMS5003;58442;52.716;23.560;2022-12-18T09:48:10;22;17;9
70520;PMS5003;58442;52.716;23.560;2022-12-18T09:50:29;13;12;7
70520;PMS5003;58442;52.716;23.560;2022-12-18T09:54:46;10;8;5
70520;PMS5003;58442;52.716;23.560;2022-12-18T09:56:52;11;11;6
70520;PMS5003;58442;52.716;23.560;2022-12-18T10:01:02;7;6;3
70520;PMS5003;58442;52.716;23.560;2022-12-18T10:03:11;12;9;3
70520;PMS5003;58442;52.716;23.560;2022-12-18T10:07:32;12;8;4
70520;PMS5003;58442;52.716;23.560;2022-12-18T10:16:59;11;9;6
70520;PMS5003;58442;52.716;23.560;2022-12-18T10:19:34;13;11;4
70520;PMS5003;58442;52.716;23.560;2022-12-18T10:21:48;23;17;9
70520;PMS5003;58442;52.716;23.560;2022-12-18T10:23:51;31;26;11
70520;PMS5003;58442;52.716;23.560;2022-12-18T10:26:02;12;9;4
70520;PMS5003;58442;52.716;23.560;2022-12-18T10:30:16;10;7;3
70520;PMS5003;58442;52.716;23.560;2022-12-18T10:32:27;13;13;6
70520;PMS5003;58442;52.716;23.560;2022-12-18T10:34:30;14;13;7
70520;PMS5003;58442;52.716;23.560;2022-12-18T10:36:31;16;14;6
70520;PMS5003;58442;52.716;23.560;2022-12-18T10:38:32;20;18;9
70520;PMS5003;58442;52.716;23.560;2022-12-18T10:45:25;12;11;7
70520;PMS5003;58442;52.716;23.560;2022-12-18T10:47:26;13;12;6
70520;PMS5003;58442;52.716;23.560;2022-12-18T10:49:31;15;14;6
70520;PMS5003;58442;52.716;23.560;2022-12-18T10:51:34;10;10;4
70520;PMS5003;58442;52.716;23.560;2022-12-18T10:53:40;8;8;4
70520;PMS5003;58442;52.716;23.560;2022-12-18T10:55:44;13;11;6
70520;PMS5003;58442;52.716;23.560;2022-12-18T10:57:47;10;9;6
70520;PMS5003;58442;52.716;23.560;2022-12-18T10:59:55;12;12;6
70520;PMS5003;58442;52.716;23.560;2022-12-18T11:01:58;12;10;7
70520;PMS5003;58442;52.716;23.560;2022-12-18T11:04:01;16;15;9
70520;PMS5003;58442;52.716;23.560;2022-12-18T11:06:08;9;9;5
70520;PMS5003;58442;52.716;23.560;2022-12-18T11:08:19;13;10;5
70520;PMS5003;58442;52.716;23.560;2022-12-18T11:12:34;6;6;3
70520;PMS5003;58442;52.716;23.560;2022-12-18T11:16:48;5;5;2
70520;PMS5003;58442;52.716;23.560;2022-12-18T11:18:52;5;5;4
70520;PMS5003;58442;52.716;23.560;2022-12-18T11:23:14;13;11;5
70520;PMS5003;58442;52.716;23.560;2022-12-18T11:25:18;12;11;6
70520;PMS5003;58442;52.716;23.560;2022-12-18T11:27:20;14;14;6
70520;PMS5003;58442;52.716;23.560;2022-12-18T11:29:28;11;10;5
70520;PMS5003;58442;52.716;23.560;2022-12-18T11:31:33;19;15;6
70520;PMS5003;58442;52.716;23.560;2022-12-18T11:33:35;11;10;4
70520;PMS5003;58442;52.716;23.560;2022-12-18T11:37:56;11;11;7
70520;PMS5003;58442;52.716;23.560;2022-12-18T11:42:17;34;24;14
70520;PMS5003;58442;52.716;23.560;2022-12-18T11:46:51;55;45;29
70520;PMS5003;58442;52.716;23.560;2022-12-18T11:51:14;33;31;20
70520;PMS5003;58442;52.716;23.560;2022-12-18T11:53:27;34;24;13
70520;PMS5003;58442;52.716;23.560;2022-12-18T11:55:31;57;36;21
70520;PMS5003;58442;52.716;23.560;2022-12-18T11:57:44;46;38;22
70520;PMS5003;58442;52.716;23.560;2022-12-18T12:00:07;24;24;14
70520;PMS5003;58442;52.716;23.560;2022-12-18T12:14:15;21;21;11
70520;PMS5003;58442;52.716;23.560;2022-12-18T12:23:42;6;4;3
70520;PMS5003;58442;52.716;23.560;2022-12-18T12:26:01;14;13;6
70520;PMS5003;58442;52.716;23.560;2022-12-18T12:30:43;16;15;9
70520;PMS5003;58442;52.716;23.560;2022-12-18T12:35:25;20;16;7
70520;PMS5003;58442;52.716;23.560;2022-12-18T12:40:05;21;18;10
70520;PMS5003;58442;52.716;23.560;2022-12-18T12:44:40;22;19;9
70520;PMS5003;58442;52.716;23.560;2022-12-18T12:46:43;23;20;11
70520;PMS5003;58442;52.716;23.560;2022-12-18T12:50:57;14;14;6
70520;PMS5003;58442;52.716;23.560;2022-12-18T12:53:05;9;8;3
70520;PMS5003;58442;52.716;23.560;2022-12-18T12:55:14;15;13;6
70520;PMS5003;58442;52.716;23.560;2022-12-18T12:57:38;18;18;7
70520;PMS5003;58442;52.716;23.560;2022-12-18T13:01:49;19;15;7
70520;PMS5003;58442;52.716;23.560;2022-12-18T13:11:01;18;12;5
70520;PMS5003;58442;52.716;23.560;2022-12-18T13:13:23;18;17;8
70520;PMS5003;58442;52.716;23.560;2022-12-18T13:15:26;16;14;6
70520;PMS5003;58442;52.716;23.560;2022-12-18T13:17:34;13;13;6
70520;PMS5003;58442;52.716;23.560;2022-12-18T13:19:35;7;7;3
70520;PMS5003;58442;52.716;23.560;2022-12-18T13:21:38;15;13;7
70520;PMS5003;58442;52.716;23.560;2022-12-18T13:23:39;13;11;7
70520;PMS5003;58442;52.716;23.560;2022-12-18T13:25:41;16;15;7
70520;PMS5003;58442;52.716;23.560;2022-12-18T13:29:57;30;28;13
70520;PMS5003;58442;52.716;23.560;2022-12-18T13:31:58;41;34;17
70520;PMS5003;58442;52.716;23.560;2022-12-18T13:36:16;21;19;12
70520;PMS5003;58442;52.716;23.560;2022-12-18T13:42:52;31;29;12
70520;PMS5003;58442;52.716;23.560;2022-12-18T13:47:36;12;10;6
70520;PMS5003;58442;52.716;23.560;2022-12-18T13:49:39;16;13;7
70520;PMS5003;58442;52.716;23.560;2022-12-18T13:51:44;31;23;9
70520;PMS5003;58442;52.716;23.560;2022-12-18T13:56:01;16;15;7
70520;PMS5003;58442;52.716;23.560;2022-12-18T13:58:12;24;21;10
70520;PMS5003;58442;52.716;23.560;2022-12-18T14:00:23;30;21;12
70520;PMS5003;58442;52.716;23.560;2022-12-18T14:02:28;21;19;9
70520;PMS5003;58442;52.716;23.560;2022-12-18T14:04:30;23;20;8
70520;PMS5003;58442;52.716;23.560;2022-12-18T14:06:34;16;15;9
70520;PMS5003;58442;52.716;23.560;2022-12-18T14:08:37;13;12;5
70520;PMS5003;58442;52.716;23.560;2022-12-18T14:12:52;22;14;5
70520;PMS5003;58442;52.716;23.560;2022-12-18T14:14:57;20;18;9
70520;PMS5003;58442;52.716;23.560;2022-12-18T14:16:59;19;14;7
70520;PMS5003;58442;52.716;23.560;2022-12-18T14:19:01;23;15;5
70520;PMS5003;58442;52.716;23.560;2022-12-18T14:21:03;14;14;7
70520;PMS5003;58442;52.716;23.560;2022-12-18T14:23:24;13;13;6
70520;PMS5003;58442;52.716;23.560;2022-12-18T14:25:28;14;13;6
70520;PMS5003;58442;52.716;23.560;2022-12-18T14:27:30;12;12;7
70520;PMS5003;58442;52.716;23.560;2022-12-18T14:29:34;12;12;7
70520;PMS5003;58442;52.716;23.560;2022-12-18T14:31:35;17;16;8
70520;PMS5003;58442;52.716;23.560;2022-12-18T14:33:42;28;27;15
70520;PMS5003;58442;52.716;23.560;2022-12-18T14:38:40;22;18;14
70520;PMS5003;58442;52.716;23.560;2022-12-18T14:40:11;30;27;13
70520;PMS5003;58442;52.716;23.560;2022-12-18T14:42:13;36;24;14
70520;PMS5003;58442;52.716;23.560;2022-12-18T14:44:21;22;22;13
70520;PMS5003;58442;52.716;23.560;2022-12-18T14:48:39;24;24;12
70520;PMS5003;58442;52.716;23.560;2022-12-18T14:50:42;30;25;13
70520;PMS5003;58442;52.716;23.560;2022-12-18T14:52:44;33;26;15
70520;PMS5003;58442;52.716;23.560;2022-12-18T14:54:45;29;26;12
70520;PMS5003;58442;52.716;23.560;2022-12-18T14:56:51;33;23;9
70520;PMS5003;58442;52.716;23.560;2022-12-18T14:59:05;23;23;16
70520;PMS5003;58442;52.716;23.560;2022-12-18T15:03:25;37;26;14
70520;PMS5003;58442;52.716;23.560;2022-12-18T15:05:27;38;29;12
70520;PMS5003;58442;52.716;23.560;2022-12-18T15:07:40;39;31;15
70520;PMS5003;58442;52.716;23.560;2022-12-18T15:11:58;27;25;14
70520;PMS5003;58442;52.716;23.560;2022-12-18T15:14:21;36;30;13
70520;PMS5003;58442;52.716;23.560;2022-12-18T15:16:18;21;21;12
70520;PMS5003;58442;52.716;23.560;2022-12-18T15:18:20;18;16;9
70520;PMS5003;58442;52.716;23.560;2022-12-18T15:20:25;22;18;10
70520;PMS5003;58442;52.716;23.560;2022-12-18T15:22:29;23;21;9
70520;PMS5003;58442;52.716;23.560;2022-12-18T15:24:35;23;21;10
70520;PMS5003;58442;52.716;23.560;2022-12-18T15:26:36;11;11;6
70520;PMS5003;58442;52.716;23.560;2022-12-18T15:35:21;21;13;8
70520;PMS5003;58442;52.716;23.560;2022-12-18T15:37:31;20;15;8
70520;PMS5003;58442;52.716;23.560;2022-12-18T15:39:32;25;12;5
70520;PMS5003;58442;52.716;23.560;2022-12-18T15:41:36;16;15;8
70520;PMS5003;58442;52.716;23.560;2022-12-18T15:43:37;24;22;10
70520;PMS5003;58442;52.716;23.560;2022-12-18T15:45:47;50;40;20
70520;PMS5003;58442;52.716;23.560;2022-12-18T15:47:48;46;35;15
70520;PMS5003;58442;52.716;23.560;2022-12-18T15:49:49;17;16;8
70520;PMS5003;58442;52.716;23.560;2022-12-18T15:51:52;18;18;5
70520;PMS5003;58442;52.716;23.560;2022-12-18T15:54:03;10;9;5
70520;PMS5003;58442;52.716;23.560;2022-12-18T15:56:09;28;19;10